sensor_id;sensor_type;location;lat;lon;timestamp;pressure;altitude;pressure_sealevel;temperature;humidity
77855;BME280;67046;50.088;14.336;2023-02-03T00:00:28;98255.30;;;2.51;74.35
77855;BME280;67046;50.088;14.336;2023-02-03T00:01:22;98253.46;;;2.52;74.39
77855;BME280;67046;50.088;14.336;2023-02-03T00:01:54;98252.41;;;2.53;74.27
77855;BME280;67046;50.088;14.336;2023-02-03T00:02:26;98248.86;;;2.53;74.42
77855;BME280;67046;50.088;14.336;2023-02-03T00:02:58;98250.85;;;2.54;74.62
77855;BME280;67046;50.088;14.336;2023-02-03T00:03:30;98250.59;;;2.55;74.42
77855;BME280;67046;50.088;14.336;2023-02-03T00:04:02;98254.20;;;2.55;74.32
77855;BME280;67046;50.088;14.336;2023-02-03T00:04:34;98254.59;;;2.56;74.36
77855;BME280;67046;50.088;14.336;2023-02-03T00:05:07;98250.80;;;2.56;74.39
77855;BME280;67046;50.088;14.336;2023-02-03T00:05:38;98252.86;;;2.56;74.31
77855;BME280;67046;50.088;14.336;2023-02-03T00:06:11;98255.73;;;2.54;74.20
77855;BME280;67046;50.088;14.336;2023-02-03T00:06:44;98256.39;;;2.53;74.49
77855;BME280;67046;50.088;14.336;2023-02-03T00:07:15;98249.65;;;2.52;74.32
77855;BME280;67046;50.088;14.336;2023-02-03T00:07:47;98249.62;;;2.51;74.27
77855;BME280;67046;50.088;14.336;2023-02-03T00:08:20;98250.14;;;2.51;74.28
77855;BME280;67046;50.088;14.336;2023-02-03T00:08:54;98251.98;;;2.52;74.33
77855;BME280;67046;50.088;14.336;2023-02-03T00:09:27;98251.71;;;2.51;74.28
77855;BME280;67046;50.088;14.336;2023-02-03T00:10:00;98254.80;;;2.51;74.41
77855;BME280;67046;50.088;14.336;2023-02-03T00:10:33;98249.91;;;2.52;74.34
77855;BME280;67046;50.088;14.336;2023-02-03T00:11:07;98256.54;;;2.52;74.58
77855;BME280;67046;50.088;14.336;2023-02-03T00:11:39;98249.75;;;2.51;74.41
77855;BME280;67046;50.088;14.336;2023-02-03T00:12:11;98250.45;;;2.53;74.28
77855;BME280;67046;50.088;14.336;2023-02-03T00:12:43;98249.08;;;2.53;74.28
77855;BME280;67046;50.088;14.336;2023-02-03T00:13:14;98248.76;;;2.54;74.32
77855;BME280;67046;50.088;14.336;2023-02-03T00:13:46;98244.09;;;2.55;74.29
77855;BME280;67046;50.088;14.336;2023-02-03T00:14:18;98248.45;;;2.57;74.32
77855;BME280;67046;50.088;14.336;2023-02-03T00:14:50;98246.83;;;2.57;74.24
77855;BME280;67046;50.088;14.336;2023-02-03T00:15:22;98249.78;;;2.59;74.28
77855;BME280;67046;50.088;14.336;2023-02-03T00:15:54;98249.00;;;2.60;74.37
77855;BME280;67046;50.088;14.336;2023-02-03T00:16:26;98248.27;;;2.62;74.22
77855;BME280;67046;50.088;14.336;2023-02-03T00:16:58;98251.05;;;2.62;74.31
77855;BME280;67046;50.088;14.336;2023-02-03T00:17:30;98251.27;;;2.63;74.23
77855;BME280;67046;50.088;14.336;2023-02-03T00:18:02;98251.56;;;2.63;74.35
77855;BME280;67046;50.088;14.336;2023-02-03T00:18:34;98251.86;;;2.64;74.27
77855;BME280;67046;50.088;14.336;2023-02-03T00:19:06;98252.09;;;2.63;74.26
77855;BME280;67046;50.088;14.336;2023-02-03T00:19:38;98250.81;;;2.64;74.14
77855;BME280;67046;50.088;14.336;2023-02-03T00:20:10;98252.39;;;2.64;74.10
77855;BME280;67046;50.088;14.336;2023-02-03T00:20:42;98256.02;;;2.65;74.18
77855;BME280;67046;50.088;14.336;2023-02-03T00:21:15;98257.48;;;2.66;74.11
77855;BME280;67046;50.088;14.336;2023-02-03T00:21:47;98256.40;;;2.67;74.21
77855;BME280;67046;50.088;14.336;2023-02-03T00:22:19;98254.27;;;2.67;74.07
77855;BME280;67046;50.088;14.336;2023-02-03T00:22:51;98255.16;;;2.67;74.23
77855;BME280;67046;50.088;14.336;2023-02-03T00:23:23;98256.52;;;2.67;74.16
77855;BME280;67046;50.088;14.336;2023-02-03T00:23:56;98255.98;;;2.66;74.22
77855;BME280;67046;50.088;14.336;2023-02-03T00:24:28;98252.95;;;2.65;73.98
77855;BME280;67046;50.088;14.336;2023-02-03T00:25:01;98250.52;;;2.63;74.03
77855;BME280;67046;50.088;14.336;2023-02-03T00:25:33;98249.05;;;2.62;74.02
77855;BME280;67046;50.088;14.336;2023-02-03T00:26:13;98248.88;;;2.62;74.15
77855;BME280;67046;50.088;14.336;2023-02-03T00:26:46;98245.30;;;2.62;74.12
77855;BME280;67046;50.088;14.336;2023-02-03T00:27:18;98246.17;;;2.61;74.22
77855;BME280;67046;50.088;14.336;2023-02-03T00:27:50;98243.15;;;2.62;74.22
77855;BME280;67046;50.088;14.336;2023-02-03T00:28:22;98244.71;;;2.62;74.30
77855;BME280;67046;50.088;14.336;2023-02-03T00:28:54;98242.00;;;2.63;74.23
77855;BME280;67046;50.088;14.336;2023-02-03T00:29:26;98242.70;;;2.63;74.12
77855;BME280;67046;50.088;14.336;2023-02-03T00:29:58;98234.67;;;2.63;74.20
77855;BME280;67046;50.088;14.336;2023-02-03T00:30:33;98242.02;;;2.63;74.32
77855;BME280;67046;50.088;14.336;2023-02-03T00:31:05;98232.98;;;2.63;74.22
77855;BME280;67046;50.088;14.336;2023-02-03T00:31:37;98239.36;;;2.63;74.20
77855;BME280;67046;50.088;14.336;2023-02-03T00:32:09;98238.71;;;2.63;74.33
77855;BME280;67046;50.088;14.336;2023-02-03T00:32:41;98240.34;;;2.64;74.45
77855;BME280;67046;50.088;14.336;2023-02-03T00:33:13;98242.55;;;2.64;74.33
77855;BME280;67046;50.088;14.336;2023-02-03T00:33:45;98244.60;;;2.65;74.36
77855;BME280;67046;50.088;14.336;2023-02-03T00:34:17;98239.73;;;2.63;74.38
77855;BME280;67046;50.088;14.336;2023-02-03T00:34:49;98241.65;;;2.63;74.44
77855;BME280;67046;50.088;14.336;2023-02-03T00:35:21;98236.92;;;2.64;74.36
77855;BME280;67046;50.088;14.336;2023-02-03T00:35:53;98242.87;;;2.64;74.29
77855;BME280;67046;50.088;14.336;2023-02-03T00:36:25;98241.98;;;2.66;74.27
77855;BME280;67046;50.088;14.336;2023-02-03T00:36:58;98244.42;;;2.68;74.23
77855;BME280;67046;50.088;14.336;2023-02-03T00:37:30;98240.87;;;2.69;74.29
77855;BME280;67046;50.088;14.336;2023-02-03T00:38:01;98240.13;;;2.69;74.23
77855;BME280;67046;50.088;14.336;2023-02-03T00:38:33;98238.79;;;2.70;74.24
77855;BME280;67046;50.088;14.336;2023-02-03T00:39:05;98242.88;;;2.71;74.22
77855;BME280;67046;50.088;14.336;2023-02-03T00:39:37;98242.48;;;2.71;74.27
77855;BME280;67046;50.088;14.336;2023-02-03T00:40:10;98241.70;;;2.72;74.39
77855;BME280;67046;50.088;14.336;2023-02-03T00:40:42;98245.80;;;2.73;74.42
77855;BME280;67046;50.088;14.336;2023-02-03T00:41:22;98241.92;;;2.73;74.40
77855;BME280;67046;50.088;14.336;2023-02-03T00:41:54;98244.45;;;2.72;74.48
77855;BME280;67046;50.088;14.336;2023-02-03T00:42:25;98244.27;;;2.74;74.35
77855;BME280;67046;50.088;14.336;2023-02-03T00:42:57;98242.60;;;2.75;74.44
77855;BME280;67046;50.088;14.336;2023-02-03T00:43:29;98241.29;;;2.75;74.23
77855;BME280;67046;50.088;14.336;2023-02-03T00:44:01;98241.48;;;2.77;74.34
77855;BME280;67046;50.088;14.336;2023-02-03T00:44:33;98239.38;;;2.78;74.29
77855;BME280;67046;50.088;14.336;2023-02-03T00:45:05;98242.74;;;2.80;74.15
77855;BME280;67046;50.088;14.336;2023-02-03T00:45:37;98240.71;;;2.80;74.18
77855;BME280;67046;50.088;14.336;2023-02-03T00:46:09;98242.20;;;2.80;74.27
77855;BME280;67046;50.088;14.336;2023-02-03T00:46:41;98242.58;;;2.79;74.22
77855;BME280;67046;50.088;14.336;2023-02-03T00:47:13;98243.13;;;2.81;74.30
77855;BME280;67046;50.088;14.336;2023-02-03T00:47:45;98247.58;;;2.81;74.36
77855;BME280;67046;50.088;14.336;2023-02-03T00:48:17;98246.88;;;2.82;74.25
77855;BME280;67046;50.088;14.336;2023-02-03T00:48:49;98249.15;;;2.81;74.23
77855;BME280;67046;50.088;14.336;2023-02-03T00:49:21;98247.58;;;2.81;74.26
77855;BME280;67046;50.088;14.336;2023-02-03T00:49:53;98246.61;;;2.81;74.20
77855;BME280;67046;50.088;14.336;2023-02-03T00:50:24;98248.33;;;2.81;74.12
77855;BME280;67046;50.088;14.336;2023-02-03T00:50:56;98245.30;;;2.81;74.16
77855;BME280;67046;50.088;14.336;2023-02-03T00:51:28;98247.02;;;2.82;74.34
77855;BME280;67046;50.088;14.336;2023-02-03T00:52:00;98247.79;;;2.83;74.22
77855;BME280;67046;50.088;14.336;2023-02-03T00:52:33;98250.15;;;2.83;74.44
77855;BME280;67046;50.088;14.336;2023-02-03T00:53:05;98246.47;;;2.83;74.36
77855;BME280;67046;50.088;14.336;2023-02-03T00:53:37;98248.39;;;2.85;74.29
77855;BME280;67046;50.088;14.336;2023-02-03T00:54:09;98250.30;;;2.82;74.36
77855;BME280;67046;50.088;14.336;2023-02-03T00:54:41;98249.02;;;2.81;74.32
77855;BME280;67046;50.088;14.336;2023-02-03T00:55:13;98248.93;;;2.80;74.35
77855;BME280;67046;50.088;14.336;2023-02-03T00:55:45;98247.77;;;2.80;74.37
77855;BME280;67046;50.088;14.336;2023-02-03T00:56:17;98248.27;;;2.80;74.54
77855;BME280;67046;50.088;14.336;2023-02-03T00:56:49;98245.35;;;2.80;74.64
77855;BME280;67046;50.088;14.336;2023-02-03T00:57:21;98251.33;;;2.79;74.77
77855;BME280;67046;50.088;14.336;2023-02-03T00:57:53;98250.41;;;2.80;74.76
77855;BME280;67046;50.088;14.336;2023-02-03T00:58:25;98247.08;;;2.80;74.56
77855;BME280;67046;50.088;14.336;2023-02-03T00:58:57;98246.36;;;2.80;74.46
77855;BME280;67046;50.088;14.336;2023-02-03T00:59:29;98247.86;;;2.80;74.66
77855;BME280;67046;50.088;14.336;2023-02-03T01:00:02;98243.91;;;2.80;74.75
77855;BME280;67046;50.088;14.336;2023-02-03T01:00:34;98247.14;;;2.79;74.90
77855;BME280;67046;50.088;14.336;2023-02-03T01:01:06;98244.20;;;2.79;74.59
77855;BME280;67046;50.088;14.336;2023-02-03T01:01:38;98248.09;;;2.78;74.71
77855;BME280;67046;50.088;14.336;2023-02-03T01:02:10;98248.56;;;2.76;74.90
77855;BME280;67046;50.088;14.336;2023-02-03T01:02:42;98246.41;;;2.75;74.84
77855;BME280;67046;50.088;14.336;2023-02-03T01:03:15;98251.94;;;2.74;74.96
77855;BME280;67046;50.088;14.336;2023-02-03T01:03:48;98246.16;;;2.74;74.96
77855;BME280;67046;50.088;14.336;2023-02-03T01:04:20;98247.16;;;2.73;74.98
77855;BME280;67046;50.088;14.336;2023-02-03T01:04:52;98250.38;;;2.72;75.14
77855;BME280;67046;50.088;14.336;2023-02-03T01:05:24;98248.13;;;2.72;75.25
77855;BME280;67046;50.088;14.336;2023-02-03T01:06:06;98250.70;;;2.72;75.16
77855;BME280;67046;50.088;14.336;2023-02-03T01:06:39;98250.11;;;2.71;75.33
77855;BME280;67046;50.088;14.336;2023-02-03T01:07:11;98255.02;;;2.69;75.49
77855;BME280;67046;50.088;14.336;2023-02-03T01:07:43;98246.61;;;2.69;75.42
77855;BME280;67046;50.088;14.336;2023-02-03T01:08:16;98248.96;;;2.68;75.39
77855;BME280;67046;50.088;14.336;2023-02-03T01:08:48;98238.09;;;2.68;75.57
77855;BME280;67046;50.088;14.336;2023-02-03T01:09:21;98241.79;;;2.68;76.11
77855;BME280;67046;50.088;14.336;2023-02-03T01:09:53;98244.95;;;2.68;75.86
77855;BME280;67046;50.088;14.336;2023-02-03T01:10:25;98241.95;;;2.68;75.98
77855;BME280;67046;50.088;14.336;2023-02-03T01:10:56;98240.05;;;2.68;75.90
77855;BME280;67046;50.088;14.336;2023-02-03T01:11:28;98241.82;;;2.67;76.02
77855;BME280;67046;50.088;14.336;2023-02-03T01:12:00;98241.59;;;2.68;76.28
77855;BME280;67046;50.088;14.336;2023-02-03T01:12:32;98232.69;;;2.69;76.18
77855;BME280;67046;50.088;14.336;2023-02-03T01:13:04;98232.36;;;2.68;76.04
77855;BME280;67046;50.088;14.336;2023-02-03T01:13:36;98234.23;;;2.69;75.98
77855;BME280;67046;50.088;14.336;2023-02-03T01:14:09;98231.64;;;2.69;76.18
77855;BME280;67046;50.088;14.336;2023-02-03T01:14:41;98234.74;;;2.69;76.29
77855;BME280;67046;50.088;14.336;2023-02-03T01:15:13;98235.25;;;2.67;76.64
77855;BME280;67046;50.088;14.336;2023-02-03T01:15:46;98231.12;;;2.67;76.23
77855;BME280;67046;50.088;14.336;2023-02-03T01:16:20;98228.68;;;2.65;76.22
77855;BME280;67046;50.088;14.336;2023-02-03T01:16:52;98230.45;;;2.65;76.65
77855;BME280;67046;50.088;14.336;2023-02-03T01:17:24;98230.91;;;2.64;76.84
77855;BME280;67046;50.088;14.336;2023-02-03T01:17:56;98230.05;;;2.64;76.92
77855;BME280;67046;50.088;14.336;2023-02-03T01:18:28;98225.14;;;2.63;76.99
77855;BME280;67046;50.088;14.336;2023-02-03T01:19:00;98227.34;;;2.61;77.01
77855;BME280;67046;50.088;14.336;2023-02-03T01:19:32;98233.20;;;2.59;76.96
77855;BME280;67046;50.088;14.336;2023-02-03T01:20:04;98228.57;;;2.56;77.14
77855;BME280;67046;50.088;14.336;2023-02-03T01:20:36;98226.77;;;2.53;76.99
77855;BME280;67046;50.088;14.336;2023-02-03T01:21:10;98224.30;;;2.50;77.01
77855;BME280;67046;50.088;14.336;2023-02-03T01:21:43;98225.27;;;2.49;77.00
77855;BME280;67046;50.088;14.336;2023-02-03T01:22:15;98227.29;;;2.50;77.08
77855;BME280;67046;50.088;14.336;2023-02-03T01:22:47;98226.85;;;2.51;77.37
77855;BME280;67046;50.088;14.336;2023-02-03T01:23:19;98228.86;;;2.53;77.35
77855;BME280;67046;50.088;14.336;2023-02-03T01:23:52;98227.98;;;2.55;77.51
77855;BME280;67046;50.088;14.336;2023-02-03T01:24:24;98226.88;;;2.55;77.41
77855;BME280;67046;50.088;14.336;2023-02-03T01:24:56;98228.79;;;2.57;77.48
77855;BME280;67046;50.088;14.336;2023-02-03T01:25:28;98232.08;;;2.57;77.33
77855;BME280;67046;50.088;14.336;2023-02-03T01:26:05;98235.90;;;2.57;77.33
77855;BME280;67046;50.088;14.336;2023-02-03T01:26:38;98231.63;;;2.56;77.63
77855;BME280;67046;50.088;14.336;2023-02-03T01:27:10;98233.17;;;2.55;77.72
77855;BME280;67046;50.088;14.336;2023-02-03T01:27:42;98229.64;;;2.54;77.84
77855;BME280;67046;50.088;14.336;2023-02-03T01:28:14;98229.94;;;2.53;77.66
77855;BME280;67046;50.088;14.336;2023-02-03T01:28:51;98228.61;;;2.52;77.60
77855;BME280;67046;50.088;14.336;2023-02-03T01:29:23;98227.38;;;2.51;77.44
77855;BME280;67046;50.088;14.336;2023-02-03T01:29:55;98225.77;;;2.50;77.56
77855;BME280;67046;50.088;14.336;2023-02-03T01:30:27;98222.33;;;2.49;77.93
77855;BME280;67046;50.088;14.336;2023-02-03T01:31:10;98220.73;;;2.50;77.71
77855;BME280;67046;50.088;14.336;2023-02-03T01:31:43;98217.60;;;2.49;77.66
77855;BME280;67046;50.088;14.336;2023-02-03T01:32:15;98211.77;;;2.49;77.67
77855;BME280;67046;50.088;14.336;2023-02-03T01:32:47;98214.02;;;2.49;77.66
77855;BME280;67046;50.088;14.336;2023-02-03T01:33:19;98212.19;;;2.50;77.67
77855;BME280;67046;50.088;14.336;2023-02-03T01:33:52;98210.27;;;2.51;77.67
77855;BME280;67046;50.088;14.336;2023-02-03T01:34:25;98212.57;;;2.52;78.03
77855;BME280;67046;50.088;14.336;2023-02-03T01:34:57;98204.98;;;2.54;77.86
77855;BME280;67046;50.088;14.336;2023-02-03T01:35:29;98205.83;;;2.54;77.91
77855;BME280;67046;50.088;14.336;2023-02-03T01:36:01;98207.73;;;2.54;77.83
77855;BME280;67046;50.088;14.336;2023-02-03T01:36:34;98204.14;;;2.53;78.10
77855;BME280;67046;50.088;14.336;2023-02-03T01:37:06;98203.42;;;2.53;78.01
77855;BME280;67046;50.088;14.336;2023-02-03T01:37:38;98202.64;;;2.52;77.98
77855;BME280;67046;50.088;14.336;2023-02-03T01:38:10;98204.68;;;2.52;77.92
77855;BME280;67046;50.088;14.336;2023-02-03T01:38:42;98194.41;;;2.50;78.17
77855;BME280;67046;50.088;14.336;2023-02-03T01:39:15;98192.88;;;2.50;77.80
77855;BME280;67046;50.088;14.336;2023-02-03T01:39:47;98195.45;;;2.50;78.03
77855;BME280;67046;50.088;14.336;2023-02-03T01:40:19;98196.30;;;2.50;77.95
77855;BME280;67046;50.088;14.336;2023-02-03T01:40:51;98199.21;;;2.49;78.29
77855;BME280;67046;50.088;14.336;2023-02-03T01:41:29;98191.48;;;2.48;78.00
77855;BME280;67046;50.088;14.336;2023-02-03T01:42:01;98193.44;;;2.46;78.20
77855;BME280;67046;50.088;14.336;2023-02-03T01:42:33;98191.73;;;2.44;78.23
77855;BME280;67046;50.088;14.336;2023-02-03T01:43:08;98188.86;;;2.44;78.14
77855;BME280;67046;50.088;14.336;2023-02-03T01:43:43;98188.27;;;2.43;78.13
77855;BME280;67046;50.088;14.336;2023-02-03T01:44:36;98190.82;;;2.42;78.25
77855;BME280;67046;50.088;14.336;2023-02-03T01:45:09;98185.49;;;2.40;78.33
77855;BME280;67046;50.088;14.336;2023-02-03T01:45:42;98187.55;;;2.38;78.31
77855;BME280;67046;50.088;14.336;2023-02-03T01:46:34;98183.39;;;2.39;78.43
77855;BME280;67046;50.088;14.336;2023-02-03T01:47:33;98182.14;;;2.37;78.36
77855;BME280;67046;50.088;14.336;2023-02-03T01:48:07;98180.30;;;2.34;78.44
77855;BME280;67046;50.088;14.336;2023-02-03T01:48:39;98174.66;;;2.33;78.46
77855;BME280;67046;50.088;14.336;2023-02-03T01:49:26;98175.64;;;2.34;78.36
77855;BME280;67046;50.088;14.336;2023-02-03T01:50:06;98174.78;;;2.34;78.57
77855;BME280;67046;50.088;14.336;2023-02-03T01:50:39;98168.52;;;2.32;78.69
77855;BME280;67046;50.088;14.336;2023-02-03T01:51:11;98168.05;;;2.32;78.64
77855;BME280;67046;50.088;14.336;2023-02-03T01:51:44;98172.48;;;2.31;78.87
77855;BME280;67046;50.088;14.336;2023-02-03T01:52:17;98163.61;;;2.31;78.93
77855;BME280;67046;50.088;14.336;2023-02-03T01:52:57;98165.73;;;2.31;78.53
77855;BME280;67046;50.088;14.336;2023-02-03T01:53:31;98163.95;;;2.30;78.75
77855;BME280;67046;50.088;14.336;2023-02-03T01:54:04;98163.73;;;2.29;78.68
77855;BME280;67046;50.088;14.336;2023-02-03T01:54:40;98163.40;;;2.28;78.80
77855;BME280;67046;50.088;14.336;2023-02-03T01:55:18;98161.93;;;2.28;78.87
77855;BME280;67046;50.088;14.336;2023-02-03T01:55:51;98160.31;;;2.27;78.79
77855;BME280;67046;50.088;14.336;2023-02-03T01:56:27;98157.20;;;2.26;78.70
77855;BME280;67046;50.088;14.336;2023-02-03T01:57:03;98159.35;;;2.27;78.76
77855;BME280;67046;50.088;14.336;2023-02-03T01:57:41;98153.77;;;2.27;78.81
77855;BME280;67046;50.088;14.336;2023-02-03T01:58:22;98152.78;;;2.26;79.48
77855;BME280;67046;50.088;14.336;2023-02-03T01:58:56;98151.02;;;2.24;79.06
77855;BME280;67046;50.088;14.336;2023-02-03T01:59:31;98146.23;;;2.23;79.19
77855;BME280;67046;50.088;14.336;2023-02-03T02:00:06;98143.53;;;2.23;79.34
77855;BME280;67046;50.088;14.336;2023-02-03T02:00:39;98143.05;;;2.22;79.28
77855;BME280;67046;50.088;14.336;2023-02-03T02:01:11;98139.03;;;2.23;79.16
77855;BME280;67046;50.088;14.336;2023-02-03T02:01:44;98137.15;;;2.22;79.36
77855;BME280;67046;50.088;14.336;2023-02-03T02:02:17;98135.48;;;2.22;79.11
77855;BME280;67046;50.088;14.336;2023-02-03T02:02:49;98130.02;;;2.21;79.33
77855;BME280;67046;50.088;14.336;2023-02-03T02:03:46;98131.59;;;2.21;79.27
77855;BME280;67046;50.088;14.336;2023-02-03T02:04:19;98129.23;;;2.17;79.17
77855;BME280;67046;50.088;14.336;2023-02-03T02:05:10;98125.26;;;2.15;79.06
77855;BME280;67046;50.088;14.336;2023-02-03T02:05:59;98123.16;;;2.14;79.59
77855;BME280;67046;50.088;14.336;2023-02-03T02:06:33;98118.99;;;2.11;79.62
77855;BME280;67046;50.088;14.336;2023-02-03T02:07:06;98119.64;;;2.10;79.50
77855;BME280;67046;50.088;14.336;2023-02-03T02:07:40;98117.10;;;2.09;79.75
77855;BME280;67046;50.088;14.336;2023-02-03T02:08:14;98117.45;;;2.09;79.72
77855;BME280;67046;50.088;14.336;2023-02-03T02:08:51;98114.42;;;2.08;79.74
77855;BME280;67046;50.088;14.336;2023-02-03T02:09:25;98112.06;;;2.07;79.70
77855;BME280;67046;50.088;14.336;2023-02-03T02:09:58;98112.73;;;2.06;80.00
77855;BME280;67046;50.088;14.336;2023-02-03T02:10:31;98109.02;;;2.07;80.14
77855;BME280;67046;50.088;14.336;2023-02-03T02:11:04;98108.58;;;2.06;79.93
77855;BME280;67046;50.088;14.336;2023-02-03T02:11:37;98104.80;;;2.06;79.89
77855;BME280;67046;50.088;14.336;2023-02-03T02:12:10;98104.99;;;2.05;80.15
77855;BME280;67046;50.088;14.336;2023-02-03T02:12:44;98108.11;;;2.05;80.22
77855;BME280;67046;50.088;14.336;2023-02-03T02:13:16;98102.73;;;2.05;80.03
77855;BME280;67046;50.088;14.336;2023-02-03T02:13:50;98102.30;;;2.05;80.10
77855;BME280;67046;50.088;14.336;2023-02-03T02:14:23;98096.63;;;2.04;79.70
77855;BME280;67046;50.088;14.336;2023-02-03T02:14:56;98099.09;;;2.05;79.95
77855;BME280;67046;50.088;14.336;2023-02-03T02:16:11;98094.55;;;2.05;79.78
77855;BME280;67046;50.088;14.336;2023-02-03T02:17:02;98101.52;;;2.04;80.26
77855;BME280;67046;50.088;14.336;2023-02-03T02:18:37;98093.70;;;2.01;80.40
77855;BME280;67046;50.088;14.336;2023-02-03T02:20:47;98090.80;;;1.94;80.25
77855;BME280;67046;50.088;14.336;2023-02-03T02:24:49;98078.41;;;1.90;80.70
77855;BME280;67046;50.088;14.336;2023-02-03T02:25:51;98074.10;;;1.89;80.78
77855;BME280;67046;50.088;14.336;2023-02-03T02:28:26;98069.02;;;1.88;80.70
77855;BME280;67046;50.088;14.336;2023-02-03T02:30:27;98062.15;;;1.86;80.99
77855;BME280;67046;50.088;14.336;2023-02-03T02:32:04;98063.06;;;1.84;80.61
77855;BME280;67046;50.088;14.336;2023-02-03T02:33:50;98068.69;;;1.85;80.70
77855;BME280;67046;50.088;14.336;2023-02-03T02:36:37;98073.29;;;1.85;81.09
77855;BME280;67046;50.088;14.336;2023-02-03T02:37:55;98064.58;;;1.86;80.91
77855;BME280;67046;50.088;14.336;2023-02-03T02:39:31;98066.37;;;1.86;81.19
77855;BME280;67046;50.088;14.336;2023-02-03T02:40:55;98059.53;;;1.85;81.32
77855;BME280;67046;50.088;14.336;2023-02-03T02:41:41;98060.88;;;1.85;81.48
77855;BME280;67046;50.088;14.336;2023-02-03T02:42:25;98059.86;;;1.85;81.25
77855;BME280;67046;50.088;14.336;2023-02-03T02:44:29;98041.26;;;1.85;81.44
77855;BME280;67046;50.088;14.336;2023-02-03T02:45:14;98038.85;;;1.85;81.42
77855;BME280;67046;50.088;14.336;2023-02-03T02:45:49;98035.59;;;1.85;81.07
77855;BME280;67046;50.088;14.336;2023-02-03T02:46:32;98033.96;;;1.83;81.22
77855;BME280;67046;50.088;14.336;2023-02-03T02:47:17;98028.84;;;1.84;81.32
77855;BME280;67046;50.088;14.336;2023-02-03T02:47:53;98025.52;;;1.84;81.49
77855;BME280;67046;50.088;14.336;2023-02-03T02:49:38;98026.50;;;1.85;81.52
77855;BME280;67046;50.088;14.336;2023-02-03T02:50:22;98030.27;;;1.85;81.34
77855;BME280;67046;50.088;14.336;2023-02-03T02:50:58;98028.31;;;1.86;81.56
77855;BME280;67046;50.088;14.336;2023-02-03T02:51:32;98029.02;;;1.86;81.69
77855;BME280;67046;50.088;14.336;2023-02-03T02:52:07;98025.14;;;1.86;81.61
77855;BME280;67046;50.088;14.336;2023-02-03T02:52:41;98022.48;;;1.87;81.57
77855;BME280;67046;50.088;14.336;2023-02-03T02:53:15;98021.02;;;1.87;81.33
77855;BME280;67046;50.088;14.336;2023-02-03T02:53:54;98018.85;;;1.88;81.50
77855;BME280;67046;50.088;14.336;2023-02-03T02:54:28;98019.23;;;1.89;81.60
77855;BME280;67046;50.088;14.336;2023-02-03T02:55:08;98015.88;;;1.90;81.20
77855;BME280;67046;50.088;14.336;2023-02-03T02:55:42;98014.41;;;1.90;81.44
77855;BME280;67046;50.088;14.336;2023-02-03T02:56:16;98014.64;;;1.91;81.22
77855;BME280;67046;50.088;14.336;2023-02-03T02:56:53;98018.87;;;1.93;81.35
77855;BME280;67046;50.088;14.336;2023-02-03T02:57:27;98018.13;;;1.94;81.29
77855;BME280;67046;50.088;14.336;2023-02-03T02:58:04;98015.79;;;1.95;81.33
77855;BME280;67046;50.088;14.336;2023-02-03T02:58:39;98016.14;;;1.95;81.31
77855;BME280;67046;50.088;14.336;2023-02-03T02:59:13;98009.23;;;1.94;81.19
77855;BME280;67046;50.088;14.336;2023-02-03T02:59:46;98011.27;;;1.95;81.45
77855;BME280;67046;50.088;14.336;2023-02-03T03:00:19;98007.12;;;1.95;81.48
77855;BME280;67046;50.088;14.336;2023-02-03T03:00:51;98008.48;;;1.95;81.30
77855;BME280;67046;50.088;14.336;2023-02-03T03:01:23;98007.41;;;1.95;81.23
77855;BME280;67046;50.088;14.336;2023-02-03T03:01:55;98006.48;;;1.96;81.43
77855;BME280;67046;50.088;14.336;2023-02-03T03:02:34;98001.17;;;1.97;81.29
77855;BME280;67046;50.088;14.336;2023-02-03T03:03:48;98005.33;;;1.95;81.28
77855;BME280;67046;50.088;14.336;2023-02-03T03:04:29;98007.29;;;1.95;81.38
77855;BME280;67046;50.088;14.336;2023-02-03T03:05:04;98008.04;;;1.94;81.59
77855;BME280;67046;50.088;14.336;2023-02-03T03:05:40;98009.88;;;1.94;81.53
77855;BME280;67046;50.088;14.336;2023-02-03T03:06:25;98010.02;;;1.94;81.28
77855;BME280;67046;50.088;14.336;2023-02-03T03:07:04;98012.86;;;1.95;81.50
77855;BME280;67046;50.088;14.336;2023-02-03T03:07:44;98016.41;;;1.94;81.89
77855;BME280;67046;50.088;14.336;2023-02-03T03:08:20;98010.92;;;1.94;81.85
77855;BME280;67046;50.088;14.336;2023-02-03T03:08:57;98015.36;;;1.94;81.44
77855;BME280;67046;50.088;14.336;2023-02-03T03:09:39;98012.69;;;1.95;81.50
77855;BME280;67046;50.088;14.336;2023-02-03T03:10:15;98013.96;;;1.96;81.90
77855;BME280;67046;50.088;14.336;2023-02-03T03:10:52;98010.12;;;1.96;81.64
77855;BME280;67046;50.088;14.336;2023-02-03T03:11:31;98010.38;;;1.95;81.66
77855;BME280;67046;50.088;14.336;2023-02-03T03:12:53;98007.31;;;1.95;81.66
77855;BME280;67046;50.088;14.336;2023-02-03T03:13:31;98008.75;;;1.94;81.66
77855;BME280;67046;50.088;14.336;2023-02-03T03:14:06;98010.19;;;1.94;81.92
77855;BME280;67046;50.088;14.336;2023-02-03T03:14:47;98007.34;;;1.93;81.96
77855;BME280;67046;50.088;14.336;2023-02-03T03:15:24;98005.45;;;1.93;81.86
77855;BME280;67046;50.088;14.336;2023-02-03T03:15:58;98008.96;;;1.92;81.92
77855;BME280;67046;50.088;14.336;2023-02-03T03:16:36;98003.62;;;1.92;81.94
77855;BME280;67046;50.088;14.336;2023-02-03T03:17:12;98006.74;;;1.92;81.95
77855;BME280;67046;50.088;14.336;2023-02-03T03:17:51;98006.27;;;1.92;82.35
77855;BME280;67046;50.088;14.336;2023-02-03T03:18:29;98004.40;;;1.93;81.87
77855;BME280;67046;50.088;14.336;2023-02-03T03:19:09;98009.68;;;1.94;81.94
77855;BME280;67046;50.088;14.336;2023-02-03T03:19:49;98004.12;;;1.95;82.00
77855;BME280;67046;50.088;14.336;2023-02-03T03:20:24;98006.30;;;1.96;82.01
77855;BME280;67046;50.088;14.336;2023-02-03T03:20:59;98002.67;;;1.97;82.04
77855;BME280;67046;50.088;14.336;2023-02-03T03:21:40;98000.16;;;1.98;82.10
77855;BME280;67046;50.088;14.336;2023-02-03T03:22:15;98001.27;;;1.99;82.14
77855;BME280;67046;50.088;14.336;2023-02-03T03:22:57;98009.23;;;1.99;82.02
77855;BME280;67046;50.088;14.336;2023-02-03T03:23:50;97998.11;;;1.99;81.93